EWG14PJ EDDL-LGSR
Flight info
| Callsign | EWG14PJ |
|---|---|
| Flight time | N/A |
| Altitude | 37000 |
| Route | DODEN1T DODEN Y852 TUSUK DCT ULNOK L607 ABUKA DCT UTABA DCT MOMUK DCT UMVEG DCT VEKEN DCT MSR DCT PINDO DCT PIKOS DCT KEA UL607 NETIS B34 PEXAN |
| Aircraft | A319/M-SDE3FGHIRWY/LB1 |
Departure
| Time | 2026-05-01 15:14 |
|---|---|
| Airport | Düsseldorf Airport (EDDL) |
Arrival
| Time | N/A |
|---|---|
| Airport | Santorini International Airport (LGSR) |
| Time | Latitude | Longitude | Altitude | Speed | Heading |
|---|---|---|---|---|---|
| 2026-05-01 14:48 | 51.28467 | 6.77007 | 118 ft | 0 kts | 323° |
| 2026-05-01 14:54 | 51.28468 | 6.77007 | 118 ft | 0 kts | 323° |
| 2026-05-01 14:54 | 51.28467 | 6.77007 | 118 ft | 0 kts | 323° |
| 2026-05-01 15:06 | 51.28452 | 6.77026 | 116 ft | 4 kts | 320° |
| 2026-05-01 15:06 | 51.28432 | 6.77055 | 117 ft | 4 kts | 307° |
| 2026-05-01 15:06 | 51.28422 | 6.77090 | 117 ft | 4 kts | 246° |
| 2026-05-01 15:06 | 51.28424 | 6.77098 | 116 ft | 1 kts | 233° |
| 2026-05-01 15:08 | 51.28423 | 6.77095 | 115 ft | 2 kts | 233° |
| 2026-05-01 15:09 | 51.28407 | 6.77062 | 115 ft | 6 kts | 232° |
| 2026-05-01 15:09 | 51.28374 | 6.76994 | 118 ft | 10 kts | 232° |
| 2026-05-01 15:09 | 51.28364 | 6.76881 | 115 ft | 13 kts | 308° |
| 2026-05-01 15:09 | 51.28435 | 6.76793 | 118 ft | 13 kts | 323° |
| 2026-05-01 15:10 | 51.28508 | 6.76813 | 118 ft | 13 kts | 52° |
| 2026-05-01 15:10 | 51.28670 | 6.77155 | 118 ft | 24 kts | 52° |
| 2026-05-01 15:10 | 51.28773 | 6.77370 | 118 ft | 24 kts | 53° |
| 2026-05-01 15:11 | 51.28875 | 6.77584 | 114 ft | 24 kts | 52° |
| 2026-05-01 15:11 | 51.29075 | 6.78004 | 115 ft | 24 kts | 52° |
| 2026-05-01 15:11 | 51.29173 | 6.78214 | 116 ft | 24 kts | 53° |
| 2026-05-01 15:12 | 51.29273 | 6.78423 | 117 ft | 24 kts | 53° |
| 2026-05-01 15:12 | 51.29457 | 6.78567 | 118 ft | 14 kts | 356° |
| 2026-05-01 15:12 | 51.29536 | 6.78559 | 119 ft | 8 kts | 354° |
| 2026-05-01 15:13 | 51.29123 | 6.77635 | 118 ft | 113 kts | 233° |
| 2026-05-01 15:14 | 51.27846 | 6.74911 | 708 ft | 162 kts | 226° |
| 2026-05-01 15:14 | 51.27172 | 6.73448 | 1355 ft | 164 kts | 227° |
| 2026-05-01 15:14 | 51.25659 | 6.70241 | 2265 ft | 201 kts | 228° |
| 2026-05-01 15:15 | 51.23845 | 6.66350 | 3021 ft | 244 kts | 229° |
| 2026-05-01 15:15 | 51.20992 | 6.63639 | 4883 ft | 237 kts | 181° |
| 2026-05-01 15:16 | 51.17771 | 6.64403 | 6853 ft | 241 kts | 154° |
| 2026-05-01 15:16 | 51.15933 | 6.67852 | 8003 ft | 265 kts | 111° |
| 2026-05-01 15:17 | 51.14970 | 6.73291 | 9407 ft | 280 kts | 108° |
| 2026-05-01 15:18 | 51.13325 | 6.82703 | 10952 ft | 323 kts | 108° |
| 2026-05-01 15:18 | 51.12686 | 6.86269 | 11136 ft | 346 kts | 108° |
| 2026-05-01 15:19 | 51.10639 | 6.97688 | 12997 ft | 363 kts | 108° |
| 2026-05-01 15:19 | 51.09230 | 7.05486 | 14360 ft | 370 kts | 108° |
| 2026-05-01 15:19 | 51.08513 | 7.09443 | 14970 ft | 374 kts | 108° |
| 2026-05-01 15:20 | 51.07055 | 7.17457 | 16202 ft | 380 kts | 108° |
| 2026-05-01 15:20 | 51.06313 | 7.21513 | 16792 ft | 382 kts | 108° |
| 2026-05-01 15:20 | 51.05563 | 7.25593 | 17424 ft | 386 kts | 108° |
| 2026-05-01 15:21 | 51.04795 | 7.29695 | 18083 ft | 389 kts | 108° |
| 2026-05-01 15:21 | 51.04000 | 7.33822 | 18736 ft | 391 kts | 108° |
| 2026-05-01 15:21 | 51.03193 | 7.37960 | 19347 ft | 392 kts | 108° |
| 2026-05-01 15:21 | 51.02412 | 7.42070 | 19964 ft | 392 kts | 108° |
| 2026-05-01 15:22 | 51.00882 | 7.50394 | 21289 ft | 392 kts | 107° |
| 2026-05-01 15:22 | 51.00141 | 7.54544 | 21974 ft | 390 kts | 106° |
| 2026-05-01 15:22 | 50.99436 | 7.58700 | 22684 ft | 389 kts | 105° |
| 2026-05-01 15:23 | 50.98769 | 7.62849 | 23407 ft | 387 kts | 104° |
| 2026-05-01 15:23 | 50.98127 | 7.66993 | 24097 ft | 385 kts | 103° |
| 2026-05-01 15:23 | 50.97511 | 7.71071 | 24720 ft | 382 kts | 103° |
| 2026-05-01 15:23 | 50.96895 | 7.75208 | 25373 ft | 379 kts | 103° |
| 2026-05-01 15:24 | 50.96315 | 7.79212 | 26044 ft | 375 kts | 102° |
| 2026-05-01 15:24 | 50.95757 | 7.83234 | 26725 ft | 371 kts | 102° |
| 2026-05-01 15:24 | 50.95230 | 7.87231 | 27423 ft | 367 kts | 101° |
| 2026-05-01 15:24 | 50.94719 | 7.91171 | 28126 ft | 361 kts | 101° |
| 2026-05-01 15:25 | 50.94221 | 7.95064 | 28853 ft | 356 kts | 101° |
| 2026-05-01 15:25 | 50.93745 | 7.98877 | 29580 ft | 349 kts | 100° |
| 2026-05-01 15:25 | 50.93300 | 8.02623 | 30327 ft | 342 kts | 99° |
| 2026-05-01 15:25 | 50.92882 | 8.06286 | 30927 ft | 334 kts | 99° |
| 2026-05-01 15:26 | 50.92493 | 8.09834 | 31511 ft | 326 kts | 98° |
| 2026-05-01 15:26 | 50.92129 | 8.13324 | 32079 ft | 316 kts | 98° |
| 2026-05-01 15:26 | 50.91798 | 8.16716 | 32612 ft | 306 kts | 97° |
| 2026-05-01 15:26 | 50.91482 | 8.20002 | 33090 ft | 296 kts | 97° |
| 2026-05-01 15:27 | 50.91165 | 8.23169 | 33498 ft | 285 kts | 98° |
| 2026-05-01 15:27 | 50.90862 | 8.26205 | 33799 ft | 273 kts | 97° |
| 2026-05-01 15:27 | 50.90584 | 8.29123 | 33958 ft | 261 kts | 96° |
| 2026-05-01 15:28 | 50.90098 | 8.34406 | 32535 ft | 211 kts | 99° |
| 2026-05-01 15:28 | 50.89842 | 8.36676 | 28513 ft | 211 kts | 100° |
| 2026-05-01 15:28 | 50.89570 | 8.38990 | 24250 ft | 214 kts | 100° |